sensor_id;sensor_type;location;lat;lon;timestamp;pressure;altitude;pressure_sealevel;temperature;humidity
9822;BME280;4950;46.042;14.472;2023-02-19T00:01:18;98605.16;;;9.09;74.32
9822;BME280;4950;46.042;14.472;2023-02-19T00:03:48;98608.72;;;9.08;74.42
9822;BME280;4950;46.042;14.472;2023-02-19T00:06:17;98601.78;;;9.09;74.46
9822;BME280;4950;46.042;14.472;2023-02-19T00:08:45;98594.38;;;9.14;74.03
9822;BME280;4950;46.042;14.472;2023-02-19T00:11:14;98599.84;;;9.11;73.85
9822;BME280;4950;46.042;14.472;2023-02-19T00:13:43;98598.38;;;9.08;73.85
9822;BME280;4950;46.042;14.472;2023-02-19T00:16:13;98601.09;;;9.07;74.14
9822;BME280;4950;46.042;14.472;2023-02-19T00:18:40;98586.38;;;9.07;74.32
9822;BME280;4950;46.042;14.472;2023-02-19T00:21:07;98593.06;;;9.10;74.18
9822;BME280;4950;46.042;14.472;2023-02-19T00:23:34;98588.81;;;9.09;74.49
9822;BME280;4950;46.042;14.472;2023-02-19T00:26:03;98593.19;;;9.08;74.05
9822;BME280;4950;46.042;14.472;2023-02-19T00:28:30;98587.88;;;9.10;74.42
9822;BME280;4950;46.042;14.472;2023-02-19T00:31:03;98591.25;;;9.11;74.57
9822;BME280;4950;46.042;14.472;2023-02-19T00:33:30;98594.00;;;9.09;74.67
9822;BME280;4950;46.042;14.472;2023-02-19T00:35:58;98589.75;;;9.08;74.33
9822;BME280;4950;46.042;14.472;2023-02-19T00:38:25;98588.28;;;9.05;74.56
9822;BME280;4950;46.042;14.472;2023-02-19T00:40:52;98589.63;;;9.09;74.44
9822;BME280;4950;46.042;14.472;2023-02-19T00:43:20;98592.88;;;9.12;74.56
9822;BME280;4950;46.042;14.472;2023-02-19T00:45:46;98586.09;;;9.11;74.77
9822;BME280;4950;46.042;14.472;2023-02-19T00:48:13;98586.75;;;9.13;74.27
9822;BME280;4950;46.042;14.472;2023-02-19T00:50:40;98582.84;;;9.08;74.33
9822;BME280;4950;46.042;14.472;2023-02-19T00:53:06;98593.34;;;9.07;74.86
9822;BME280;4950;46.042;14.472;2023-02-19T00:55:33;98581.03;;;9.09;74.92
9822;BME280;4950;46.042;14.472;2023-02-19T00:58:00;98579.56;;;9.06;74.48
9822;BME280;4950;46.042;14.472;2023-02-19T01:00:28;98585.56;;;9.07;74.83
9822;BME280;4950;46.042;14.472;2023-02-19T01:02:54;98581.84;;;9.09;75.22
9822;BME280;4950;46.042;14.472;2023-02-19T01:05:21;98587.47;;;9.05;74.92
9822;BME280;4950;46.042;14.472;2023-02-19T01:07:48;98583.25;;;9.04;75.33
9822;BME280;4950;46.042;14.472;2023-02-19T01:10:15;98581.50;;;9.04;75.34
9822;BME280;4950;46.042;14.472;2023-02-19T01:12:41;98577.25;;;9.03;75.88
9822;BME280;4950;46.042;14.472;2023-02-19T01:15:08;98579.84;;;9.03;76.03
9822;BME280;4950;46.042;14.472;2023-02-19T01:17:36;98576.97;;;9.06;75.60
9822;BME280;4950;46.042;14.472;2023-02-19T01:20:03;98568.56;;;9.04;76.11
9822;BME280;4950;46.042;14.472;2023-02-19T01:22:30;98575.66;;;9.02;75.57
9822;BME280;4950;46.042;14.472;2023-02-19T01:24:57;98572.63;;;9.07;75.77
9822;BME280;4950;46.042;14.472;2023-02-19T01:27:23;98564.19;;;9.05;76.10
9822;BME280;4950;46.042;14.472;2023-02-19T01:29:50;98565.66;;;9.07;75.88
9822;BME280;4950;46.042;14.472;2023-02-19T01:32:17;98572.47;;;9.08;76.12
9822;BME280;4950;46.042;14.472;2023-02-19T01:34:45;98563.88;;;9.08;75.69
9822;BME280;4950;46.042;14.472;2023-02-19T01:37:11;98555.94;;;9.09;76.12
9822;BME280;4950;46.042;14.472;2023-02-19T01:39:38;98549.44;;;9.05;75.65
9822;BME280;4950;46.042;14.472;2023-02-19T01:42:11;98551.09;;;9.06;76.27
9822;BME280;4950;46.042;14.472;2023-02-19T01:47:56;98544.66;;;9.11;75.90
9822;BME280;4950;46.042;14.472;2023-02-19T01:50:27;98539.59;;;9.09;75.97
9822;BME280;4950;46.042;14.472;2023-02-19T01:52:55;98531.31;;;9.05;76.64
9822;BME280;4950;46.042;14.472;2023-02-19T01:55:22;98542.34;;;9.07;76.58
9822;BME280;4950;46.042;14.472;2023-02-19T01:57:52;98537.16;;;9.07;76.30
9822;BME280;4950;46.042;14.472;2023-02-19T02:00:20;98523.25;;;9.08;76.21
9822;BME280;4950;46.042;14.472;2023-02-19T02:02:51;98526.66;;;9.09;76.63
9822;BME280;4950;46.042;14.472;2023-02-19T02:05:31;98512.06;;;9.08;76.44
9822;BME280;4950;46.042;14.472;2023-02-19T02:08:02;98517.56;;;9.05;76.95
9822;BME280;4950;46.042;14.472;2023-02-19T02:10:43;98515.63;;;9.07;76.89
9822;BME280;4950;46.042;14.472;2023-02-19T02:13:10;98513.72;;;9.09;76.80
9822;BME280;4950;46.042;14.472;2023-02-19T02:15:44;98514.50;;;9.09;76.46
9822;BME280;4950;46.042;14.472;2023-02-19T02:18:20;98507.06;;;9.06;76.17
9822;BME280;4950;46.042;14.472;2023-02-19T02:21:03;98511.25;;;9.07;76.73
9822;BME280;4950;46.042;14.472;2023-02-19T02:23:39;98503.50;;;9.07;76.69
9822;BME280;4950;46.042;14.472;2023-02-19T02:26:34;98506.22;;;9.06;76.40
9822;BME280;4950;46.042;14.472;2023-02-19T02:29:31;98510.16;;;9.10;76.25
9822;BME280;4950;46.042;14.472;2023-02-19T02:32:07;98519.41;;;9.13;76.48
9822;BME280;4950;46.042;14.472;2023-02-19T02:34:42;98517.47;;;9.15;75.89
9822;BME280;4950;46.042;14.472;2023-02-19T02:37:11;98513.44;;;9.12;75.92
9822;BME280;4950;46.042;14.472;2023-02-19T02:39:40;98505.66;;;9.12;75.63
9822;BME280;4950;46.042;14.472;2023-02-19T02:42:07;98501.72;;;9.08;75.84
9822;BME280;4950;46.042;14.472;2023-02-19T02:44:52;98503.34;;;9.09;76.22
9822;BME280;4950;46.042;14.472;2023-02-19T02:47:40;98495.44;;;9.11;76.01
9822;BME280;4950;46.042;14.472;2023-02-19T02:50:13;98499.13;;;9.08;76.10
9822;BME280;4950;46.042;14.472;2023-02-19T02:52:43;98493.13;;;9.07;75.80
9822;BME280;4950;46.042;14.472;2023-02-19T02:55:30;98491.53;;;9.06;75.62
9822;BME280;4950;46.042;14.472;2023-02-19T02:57:59;98483.75;;;9.06;75.57
9822;BME280;4950;46.042;14.472;2023-02-19T03:00:26;98474.06;;;9.08;75.92
9822;BME280;4950;46.042;14.472;2023-02-19T03:03:16;98470.19;;;9.13;75.40
9822;BME280;4950;46.042;14.472;2023-02-19T03:05:44;98471.97;;;9.12;75.28
9822;BME280;4950;46.042;14.472;2023-02-19T03:08:22;98468.03;;;9.08;75.31
9822;BME280;4950;46.042;14.472;2023-02-19T03:10:54;98467.59;;;9.13;75.79
9822;BME280;4950;46.042;14.472;2023-02-19T03:13:25;98459.84;;;9.13;74.90
9822;BME280;4950;46.042;14.472;2023-02-19T03:16:14;98460.50;;;9.15;75.01
9822;BME280;4950;46.042;14.472;2023-02-19T03:19:02;98459.69;;;9.14;75.24
9822;BME280;4950;46.042;14.472;2023-02-19T03:21:49;98457.25;;;9.13;74.83
9822;BME280;4950;46.042;14.472;2023-02-19T03:24:20;98458.72;;;9.15;75.40
9822;BME280;4950;46.042;14.472;2023-02-19T03:27:06;98460.88;;;9.20;75.24
9822;BME280;4950;46.042;14.472;2023-02-19T03:29:37;98450.50;;;9.20;74.89
9822;BME280;4950;46.042;14.472;2023-02-19T03:32:09;98452.59;;;9.16;75.31
9822;BME280;4950;46.042;14.472;2023-02-19T03:34:43;98448.50;;;9.14;74.80
9822;BME280;4950;46.042;14.472;2023-02-19T03:37:14;98446.22;;;9.11;75.00
9822;BME280;4950;46.042;14.472;2023-02-19T03:39:42;98443.97;;;9.16;75.17
9822;BME280;4950;46.042;14.472;2023-02-19T03:42:17;98441.25;;;9.17;75.03
9822;BME280;4950;46.042;14.472;2023-02-19T03:44:59;98443.03;;;9.17;74.60
9822;BME280;4950;46.042;14.472;2023-02-19T03:47:29;98431.41;;;9.21;74.66
9822;BME280;4950;46.042;14.472;2023-02-19T03:50:01;98435.78;;;9.20;74.49
9822;BME280;4950;46.042;14.472;2023-02-19T03:52:36;98435.78;;;9.20;74.23
9822;BME280;4950;46.042;14.472;2023-02-19T03:55:07;98434.50;;;9.24;74.41
9822;BME280;4950;46.042;14.472;2023-02-19T03:57:48;98436.28;;;9.24;74.07
9822;BME280;4950;46.042;14.472;2023-02-19T04:00:17;98436.94;;;9.26;74.55
9822;BME280;4950;46.042;14.472;2023-02-19T04:02:50;98431.16;;;9.32;73.85
9822;BME280;4950;46.042;14.472;2023-02-19T04:05:21;98433.75;;;9.32;73.94
9822;BME280;4950;46.042;14.472;2023-02-19T04:07:54;98431.66;;;9.36;73.75
9822;BME280;4950;46.042;14.472;2023-02-19T04:10:22;98431.06;;;9.42;73.73
9822;BME280;4950;46.042;14.472;2023-02-19T04:12:52;98424.56;;;9.38;73.18
9822;BME280;4950;46.042;14.472;2023-02-19T04:15:24;98429.06;;;9.36;74.02
9822;BME280;4950;46.042;14.472;2023-02-19T04:17:54;98423.44;;;9.40;73.73
9822;BME280;4950;46.042;14.472;2023-02-19T04:20:26;98419.06;;;9.41;73.49
9822;BME280;4950;46.042;14.472;2023-02-19T04:22:55;98415.38;;;9.43;73.73
9822;BME280;4950;46.042;14.472;2023-02-19T04:25:23;98414.69;;;9.41;73.59
9822;BME280;4950;46.042;14.472;2023-02-19T04:27:51;98420.19;;;9.38;73.13
9822;BME280;4950;46.042;14.472;2023-02-19T04:30:20;98417.28;;;9.41;73.20
9822;BME280;4950;46.042;14.472;2023-02-19T04:32:47;98417.94;;;9.43;73.44
9822;BME280;4950;46.042;14.472;2023-02-19T04:35:13;98414.09;;;9.47;73.17
9822;BME280;4950;46.042;14.472;2023-02-19T04:37:41;98418.00;;;9.52;73.70
9822;BME280;4950;46.042;14.472;2023-02-19T04:40:09;98419.59;;;9.53;73.53
9822;BME280;4950;46.042;14.472;2023-02-19T04:42:36;98414.63;;;9.59;73.17
9822;BME280;4950;46.042;14.472;2023-02-19T04:45:03;98417.38;;;9.58;73.34
9822;BME280;4950;46.042;14.472;2023-02-19T04:47:30;98409.44;;;9.59;73.05
9822;BME280;4950;46.042;14.472;2023-02-19T04:49:57;98408.63;;;9.59;72.82
9822;BME280;4950;46.042;14.472;2023-02-19T04:52:23;98410.41;;;9.58;72.62
9822;BME280;4950;46.042;14.472;2023-02-19T04:54:51;98401.66;;;9.59;72.62
9822;BME280;4950;46.042;14.472;2023-02-19T04:57:18;98406.53;;;9.62;72.28
9822;BME280;4950;46.042;14.472;2023-02-19T04:59:45;98404.13;;;9.61;72.29
9822;BME280;4950;46.042;14.472;2023-02-19T05:02:12;98406.53;;;9.62;71.93
9822;BME280;4950;46.042;14.472;2023-02-19T05:04:38;98400.84;;;9.59;72.06
9822;BME280;4950;46.042;14.472;2023-02-19T05:07:06;98393.53;;;9.54;72.22
9822;BME280;4950;46.042;14.472;2023-02-19T05:09:32;98392.72;;;9.54;72.03
9822;BME280;4950;46.042;14.472;2023-02-19T05:12:00;98393.53;;;9.54;72.58
9822;BME280;4950;46.042;14.472;2023-02-19T05:14:27;98394.19;;;9.56;72.46
9822;BME280;4950;46.042;14.472;2023-02-19T05:16:54;98398.88;;;9.53;72.04
9822;BME280;4950;46.042;14.472;2023-02-19T05:19:20;98395.00;;;9.57;72.33
9822;BME280;4950;46.042;14.472;2023-02-19T05:21:47;98396.78;;;9.56;71.92
9822;BME280;4950;46.042;14.472;2023-02-19T05:24:14;98396.28;;;9.53;72.44
9822;BME280;4950;46.042;14.472;2023-02-19T05:26:40;98390.00;;;9.55;72.38
9822;BME280;4950;46.042;14.472;2023-02-19T05:29:08;98390.94;;;9.54;71.98
9822;BME280;4950;46.042;14.472;2023-02-19T05:31:35;98383.16;;;9.54;72.49
9822;BME280;4950;46.042;14.472;2023-02-19T05:34:02;98378.78;;;9.55;72.20
9822;BME280;4950;46.042;14.472;2023-02-19T05:36:29;98374.88;;;9.51;72.37
9822;BME280;4950;46.042;14.472;2023-02-19T05:38:56;98383.50;;;9.51;72.49
9822;BME280;4950;46.042;14.472;2023-02-19T05:41:25;98388.81;;;9.49;72.02
9822;BME280;4950;46.042;14.472;2023-02-19T05:43:52;98384.31;;;9.52;72.14
9822;BME280;4950;46.042;14.472;2023-02-19T05:46:22;98382.66;;;9.51;72.18
9822;BME280;4950;46.042;14.472;2023-02-19T05:48:51;98388.81;;;9.49;72.04
9822;BME280;4950;46.042;14.472;2023-02-19T05:51:20;98382.16;;;9.47;72.26
9822;BME280;4950;46.042;14.472;2023-02-19T05:53:48;98383.78;;;9.48;72.67
9822;BME280;4950;46.042;14.472;2023-02-19T05:56:31;98375.88;;;9.49;72.90
9822;BME280;4950;46.042;14.472;2023-02-19T05:58:59;98378.47;;;9.49;72.34
9822;BME280;4950;46.042;14.472;2023-02-19T06:01:27;98374.22;;;9.48;72.98
9822;BME280;4950;46.042;14.472;2023-02-19T06:03:55;98381.81;;;9.42;73.47
9822;BME280;4950;46.042;14.472;2023-02-19T06:06:22;98393.00;;;9.42;73.47
9822;BME280;4950;46.042;14.472;2023-02-19T06:08:49;98393.34;;;9.47;73.77
9822;BME280;4950;46.042;14.472;2023-02-19T06:11:16;98393.50;;;9.46;73.76
9822;BME280;4950;46.042;14.472;2023-02-19T06:13:43;98390.56;;;9.41;73.65
9822;BME280;4950;46.042;14.472;2023-02-19T06:16:11;98379.66;;;9.37;73.90
9822;BME280;4950;46.042;14.472;2023-02-19T06:18:39;98390.22;;;9.36;73.82
9822;BME280;4950;46.042;14.472;2023-02-19T06:21:08;98382.25;;;9.37;73.95
9822;BME280;4950;46.042;14.472;2023-02-19T06:23:36;98381.47;;;9.37;74.28
9822;BME280;4950;46.042;14.472;2023-02-19T06:26:10;98385.19;;;9.34;74.46
9822;BME280;4950;46.042;14.472;2023-02-19T06:28:38;98378.22;;;9.35;74.22
9822;BME280;4950;46.042;14.472;2023-02-19T06:31:05;98379.53;;;9.39;74.57
9822;BME280;4950;46.042;14.472;2023-02-19T06:33:32;98384.72;;;9.39;74.10
9822;BME280;4950;46.042;14.472;2023-02-19T06:36:02;98384.28;;;9.43;74.02
9822;BME280;4950;46.042;14.472;2023-02-19T06:38:29;98385.22;;;9.42;74.12
9822;BME280;4950;46.042;14.472;2023-02-19T06:40:59;98380.69;;;9.44;73.48
9822;BME280;4950;46.042;14.472;2023-02-19T06:43:26;98386.09;;;9.51;73.88
9822;BME280;4950;46.042;14.472;2023-02-19T06:45:53;98390.00;;;9.55;73.76
9822;BME280;4950;46.042;14.472;2023-02-19T06:48:19;98389.50;;;9.60;73.07
9822;BME280;4950;46.042;14.472;2023-02-19T06:50:46;98392.09;;;9.60;72.91
9822;BME280;4950;46.042;14.472;2023-02-19T06:53:14;98392.91;;;9.60;73.24
9822;BME280;4950;46.042;14.472;2023-02-19T06:55:41;98397.66;;;9.65;72.63
9822;BME280;4950;46.042;14.472;2023-02-19T06:58:07;98399.91;;;9.68;72.87
9822;BME280;4950;46.042;14.472;2023-02-19T07:00:34;98405.09;;;9.68;72.11
9822;BME280;4950;46.042;14.472;2023-02-19T07:03:01;98393.94;;;9.67;72.40
9822;BME280;4950;46.042;14.472;2023-02-19T07:05:27;98392.94;;;9.68;72.29
9822;BME280;4950;46.042;14.472;2023-02-19T07:07:54;98388.59;;;9.69;71.55
9822;BME280;4950;46.042;14.472;2023-02-19T07:10:22;98395.53;;;9.68;72.21
9822;BME280;4950;46.042;14.472;2023-02-19T07:12:49;98404.16;;;9.69;71.66
9822;BME280;4950;46.042;14.472;2023-02-19T07:15:16;98408.06;;;9.73;71.72
9822;BME280;4950;46.042;14.472;2023-02-19T07:17:42;98415.19;;;9.79;71.78
9822;BME280;4950;46.042;14.472;2023-02-19T07:20:10;98417.78;;;9.79;72.08
9822;BME280;4950;46.042;14.472;2023-02-19T07:22:36;98427.50;;;9.77;71.57
9822;BME280;4950;46.042;14.472;2023-02-19T07:25:03;98426.22;;;9.81;71.83
9822;BME280;4950;46.042;14.472;2023-02-19T07:27:31;98421.34;;;9.78;71.92
9822;BME280;4950;46.042;14.472;2023-02-19T07:29:58;98420.25;;;9.81;71.91
9822;BME280;4950;46.042;14.472;2023-02-19T07:32:25;98425.59;;;9.87;71.93
9822;BME280;4950;46.042;14.472;2023-02-19T07:34:51;98425.59;;;9.87;72.38
9822;BME280;4950;46.042;14.472;2023-02-19T07:37:18;98426.91;;;9.92;72.59
9822;BME280;4950;46.042;14.472;2023-02-19T07:39:45;98416.38;;;9.93;72.49
9822;BME280;4950;46.042;14.472;2023-02-19T07:42:11;98411.19;;;9.93;71.96
9822;BME280;4950;46.042;14.472;2023-02-19T07:44:39;98421.22;;;9.88;71.87
9822;BME280;4950;46.042;14.472;2023-02-19T07:47:06;98423.16;;;9.86;72.05
9822;BME280;4950;46.042;14.472;2023-02-19T07:49:33;98427.41;;;9.87;72.28
9822;BME280;4950;46.042;14.472;2023-02-19T07:51:59;98433.22;;;9.89;72.64
9822;BME280;4950;46.042;14.472;2023-02-19T07:54:26;98439.38;;;9.88;72.86
9822;BME280;4950;46.042;14.472;2023-02-19T07:56:53;98440.88;;;9.91;72.50
9822;BME280;4950;46.042;14.472;2023-02-19T07:59:20;98424.66;;;9.88;72.51
9822;BME280;4950;46.042;14.472;2023-02-19T08:01:48;98424.16;;;9.85;72.93
9822;BME280;4950;46.042;14.472;2023-02-19T08:04:32;98429.81;;;9.80;73.22
9822;BME280;4950;46.042;14.472;2023-02-19T08:07:00;98439.66;;;9.77;73.55
9822;BME280;4950;46.042;14.472;2023-02-19T08:09:26;98441.13;;;9.79;73.22
9822;BME280;4950;46.042;14.472;2023-02-19T08:11:53;98444.84;;;9.77;73.34
9822;BME280;4950;46.042;14.472;2023-02-19T08:14:37;98444.84;;;9.77;73.35
9822;BME280;4950;46.042;14.472;2023-02-19T08:17:05;98446.78;;;9.75;74.26
9822;BME280;4950;46.042;14.472;2023-02-19T08:19:32;98443.72;;;9.79;73.99
9822;BME280;4950;46.042;14.472;2023-02-19T08:21:58;98444.03;;;9.76;73.59
9822;BME280;4950;46.042;14.472;2023-02-19T08:24:25;98445.00;;;9.75;73.79
9822;BME280;4950;46.042;14.472;2023-02-19T08:26:52;98444.34;;;9.73;73.88
9822;BME280;4950;46.042;14.472;2023-02-19T08:29:18;98436.88;;;9.70;74.24
9822;BME280;4950;46.042;14.472;2023-02-19T08:31:45;98439.47;;;9.70;73.95
9822;BME280;4950;46.042;14.472;2023-02-19T08:34:13;98438.81;;;9.68;74.94
9822;BME280;4950;46.042;14.472;2023-02-19T08:36:40;98438.94;;;9.66;75.08
9822;BME280;4950;46.042;14.472;2023-02-19T08:39:06;98451.44;;;9.63;75.39
9822;BME280;4950;46.042;14.472;2023-02-19T08:41:33;98448.38;;;9.67;75.20
9822;BME280;4950;46.042;14.472;2023-02-19T08:44:00;98447.75;;;9.74;74.82
9822;BME280;4950;46.042;14.472;2023-02-19T08:46:26;98445.63;;;9.69;74.89
9822;BME280;4950;46.042;14.472;2023-02-19T08:48:53;98449.16;;;9.68;75.23
9822;BME280;4950;46.042;14.472;2023-02-19T08:51:21;98459.25;;;9.71;74.88
9822;BME280;4950;46.042;14.472;2023-02-19T08:53:48;98456.66;;;9.71;74.56
9822;BME280;4950;46.042;14.472;2023-02-19T08:56:15;98447.25;;;9.70;74.46
9822;BME280;4950;46.042;14.472;2023-02-19T08:58:43;98452.56;;;9.68;74.99
9822;BME280;4950;46.042;14.472;2023-02-19T09:01:11;98458.59;;;9.69;75.06
9822;BME280;4950;46.042;14.472;2023-02-19T09:03:38;98465.53;;;9.68;74.91
9822;BME280;4950;46.042;14.472;2023-02-19T09:06:05;98452.09;;;9.65;74.75
9822;BME280;4950;46.042;14.472;2023-02-19T09:08:33;98451.72;;;9.60;75.57
9822;BME280;4950;46.042;14.472;2023-02-19T09:11:02;98463.03;;;9.59;75.65
9822;BME280;4950;46.042;14.472;2023-02-19T09:13:29;98452.03;;;9.57;75.28
9822;BME280;4950;46.042;14.472;2023-02-19T09:15:56;98448.78;;;9.55;75.60
9822;BME280;4950;46.042;14.472;2023-02-19T09:18:23;98452.19;;;9.55;75.67
9822;BME280;4950;46.042;14.472;2023-02-19T09:20:50;98450.25;;;9.57;75.70
9822;BME280;4950;46.042;14.472;2023-02-19T09:23:16;98453.66;;;9.58;75.20
9822;BME280;4950;46.042;14.472;2023-02-19T09:25:46;98447.19;;;9.62;75.15
9822;BME280;4950;46.042;14.472;2023-02-19T09:28:12;98445.25;;;9.64;74.89
9822;BME280;4950;46.042;14.472;2023-02-19T09:30:41;98443.66;;;9.63;75.07
9822;BME280;4950;46.042;14.472;2023-02-19T09:33:07;98449.50;;;9.65;74.97
9822;BME280;4950;46.042;14.472;2023-02-19T09:35:39;98453.25;;;9.71;74.87
9822;BME280;4950;46.042;14.472;2023-02-19T09:38:05;98443.22;;;9.76;74.42
9822;BME280;4950;46.042;14.472;2023-02-19T09:40:35;98442.09;;;9.78;73.75
9822;BME280;4950;46.042;14.472;2023-02-19T09:43:07;98438.03;;;9.76;74.40
9822;BME280;4950;46.042;14.472;2023-02-19T09:45:35;98422.16;;;9.71;74.01
9822;BME280;4950;46.042;14.472;2023-02-19T09:48:04;98430.41;;;9.74;74.34
9822;BME280;4950;46.042;14.472;2023-02-19T09:50:37;98426.19;;;9.73;74.08
9822;BME280;4950;46.042;14.472;2023-02-19T09:53:12;98425.72;;;9.78;74.29
9822;BME280;4950;46.042;14.472;2023-02-19T09:55:43;98432.41;;;9.80;73.60
9822;BME280;4950;46.042;14.472;2023-02-19T09:58:22;98431.56;;;9.80;73.38
9822;BME280;4950;46.042;14.472;2023-02-19T10:00:52;98432.41;;;9.80;73.51
9822;BME280;4950;46.042;14.472;2023-02-19T10:03:22;98434.66;;;9.83;73.67
9822;BME280;4950;46.042;14.472;2023-02-19T10:05:55;98433.53;;;9.86;73.28
9822;BME280;4950;46.042;14.472;2023-02-19T10:08:23;98437.75;;;9.87;72.84
9822;BME280;4950;46.042;14.472;2023-02-19T10:10:51;98438.28;;;9.91;72.76
9822;BME280;4950;46.042;14.472;2023-02-19T10:13:22;98434.53;;;9.93;72.64
9822;BME280;4950;46.042;14.472;2023-02-19T10:15:50;98440.25;;;9.97;72.69
9822;BME280;4950;46.042;14.472;2023-02-19T10:18:21;98426.94;;;10.00;72.14
9822;BME280;4950;46.042;14.472;2023-02-19T10:20:51;98418.72;;;10.04;72.06
9822;BME280;4950;46.042;14.472;2023-02-19T10:23:18;98427.28;;;10.05;72.36
9822;BME280;4950;46.042;14.472;2023-02-19T10:25:55;98430.69;;;10.05;72.24
9822;BME280;4950;46.042;14.472;2023-02-19T10:28:27;98427.78;;;10.08;71.76
9822;BME280;4950;46.042;14.472;2023-02-19T10:30:56;98429.25;;;10.11;72.18
9822;BME280;4950;46.042;14.472;2023-02-19T10:33:24;98427.97;;;10.15;71.79
9822;BME280;4950;46.042;14.472;2023-02-19T10:35:53;98421.97;;;10.15;71.89
9822;BME280;4950;46.042;14.472;2023-02-19T10:38:22;98426.34;;;10.14;71.76
9822;BME280;4950;46.042;14.472;2023-02-19T10:40:58;98425.22;;;10.17;71.91
9822;BME280;4950;46.042;14.472;2023-02-19T10:43:30;98422.63;;;10.17;72.26
9822;BME280;4950;46.042;14.472;2023-02-19T10:46:01;98415.50;;;10.19;71.83
9822;BME280;4950;46.042;14.472;2023-02-19T10:48:31;98422.97;;;10.22;71.75
9822;BME280;4950;46.042;14.472;2023-02-19T10:51:01;98411.31;;;10.26;71.94
9822;BME280;4950;46.042;14.472;2023-02-19T10:53:42;98413.09;;;10.25;72.25
9822;BME280;4950;46.042;14.472;2023-02-19T10:56:11;98414.72;;;10.26;71.71
9822;BME280;4950;46.042;14.472;2023-02-19T10:58:40;98415.25;;;10.30;71.73
9822;BME280;4950;46.042;14.472;2023-02-19T11:01:17;98412.16;;;10.35;71.61
9822;BME280;4950;46.042;14.472;2023-02-19T11:03:48;98395.78;;;10.34;70.90
9822;BME280;4950;46.042;14.472;2023-02-19T11:06:17;98401.63;;;10.36;70.57
9822;BME280;4950;46.042;14.472;2023-02-19T11:08:49;98394.00;;;10.35;70.79
9822;BME280;4950;46.042;14.472;2023-02-19T11:11:28;98391.44;;;10.43;70.88
9822;BME280;4950;46.042;14.472;2023-02-19T11:14:03;98402.63;;;10.43;70.79
9822;BME280;4950;46.042;14.472;2023-02-19T11:16:42;98400.81;;;10.44;71.13
9822;BME280;4950;46.042;14.472;2023-02-19T11:19:26;98398.06;;;10.45;71.13
9822;BME280;4950;46.042;14.472;2023-02-19T11:21:54;98393.69;;;10.46;71.17
9822;BME280;4950;46.042;14.472;2023-02-19T11:24:25;98402.28;;;10.46;71.20
9822;BME280;4950;46.042;14.472;2023-02-19T11:26:52;98395.00;;;10.50;71.26
9822;BME280;4950;46.042;14.472;2023-02-19T11:29:21;98390.63;;;10.51;71.10
9822;BME280;4950;46.042;14.472;2023-02-19T11:31:49;98393.22;;;10.51;70.97
9822;BME280;4950;46.042;14.472;2023-02-19T11:34:27;98398.56;;;10.49;70.87
9822;BME280;4950;46.042;14.472;2023-02-19T11:37:09;98389.00;;;10.50;70.96
9822;BME280;4950;46.042;14.472;2023-02-19T11:39:38;98388.19;;;10.49;71.27
9822;BME280;4950;46.042;14.472;2023-02-19T11:42:29;98386.09;;;10.53;70.67
9822;BME280;4950;46.042;14.472;2023-02-19T11:45:21;98378.44;;;10.59;70.50
9822;BME280;4950;46.042;14.472;2023-02-19T11:48:13;98377.47;;;10.60;70.35
9822;BME280;4950;46.042;14.472;2023-02-19T11:50:51;98372.28;;;10.60;69.75
9822;BME280;4950;46.042;14.472;2023-02-19T11:53:24;98373.56;;;10.56;70.57
9822;BME280;4950;46.042;14.472;2023-02-19T11:56:02;98376.81;;;10.58;70.19
9822;BME280;4950;46.042;14.472;2023-02-19T11:58:59;98374.56;;;10.55;70.32
9822;BME280;4950;46.042;14.472;2023-02-19T12:01:58;98367.91;;;10.53;70.95
9822;BME280;4950;46.042;14.472;2023-02-19T12:05:04;98370.00;;;10.57;70.44
9822;BME280;4950;46.042;14.472;2023-02-19T12:07:58;98371.81;;;10.57;70.88
9822;BME280;4950;46.042;14.472;2023-02-19T12:10:35;98364.00;;;10.65;70.70
9822;BME280;4950;46.042;14.472;2023-02-19T12:13:15;98375.53;;;10.71;70.33
9822;BME280;4950;46.042;14.472;2023-02-19T12:16:03;98363.03;;;10.66;70.53
9822;BME280;4950;46.042;14.472;2023-02-19T12:21:55;98379.59;;;10.65;70.67
9822;BME280;4950;46.042;14.472;2023-02-19T12:27:44;98369.53;;;10.62;70.76
9822;BME280;4950;46.042;14.472;2023-02-19T12:30:24;98351.34;;;10.62;70.53
9822;BME280;4950;46.042;14.472;2023-02-19T12:33:08;98372.75;;;10.64;70.69
9822;BME280;4950;46.042;14.472;2023-02-19T12:35:45;98363.50;;;10.70;70.70
9822;BME280;4950;46.042;14.472;2023-02-19T12:38:20;98362.72;;;10.69;70.33
9822;BME280;4950;46.042;14.472;2023-02-19T12:41:15;98361.06;;;10.68;70.86
9822;BME280;4950;46.042;14.472;2023-02-19T12:43:49;98352.97;;;10.71;70.87
9822;BME280;4950;46.042;14.472;2023-02-19T12:46:19;98356.06;;;10.75;71.03
9822;BME280;4950;46.042;14.472;2023-02-19T12:48:52;98348.44;;;10.73;71.19
9822;BME280;4950;46.042;14.472;2023-02-19T12:51:27;98357.84;;;10.74;70.99
9822;BME280;4950;46.042;14.472;2023-02-19T12:54:00;98358.31;;;10.70;71.41
9822;BME280;4950;46.042;14.472;2023-02-19T12:56:29;98353.13;;;10.70;71.54
9822;BME280;4950;46.042;14.472;2023-02-19T12:59:00;98351.19;;;10.72;71.25
9822;BME280;4950;46.042;14.472;2023-02-19T13:01:32;98350.22;;;10.73;71.05
9822;BME280;4950;46.042;14.472;2023-02-19T13:04:13;98344.88;;;10.74;71.51
9822;BME280;4950;46.042;14.472;2023-02-19T13:06:47;98342.44;;;10.73;71.00
9822;BME280;4950;46.042;14.472;2023-02-19T13:09:19;98336.88;;;10.76;70.96
9822;BME280;4950;46.042;14.472;2023-02-19T13:11:53;98335.94;;;10.77;71.34
9822;BME280;4950;46.042;14.472;2023-02-19T13:14:27;98331.38;;;10.79;71.28
9822;BME280;4950;46.042;14.472;2023-02-19T13:16:59;98327.47;;;10.83;71.22
9822;BME280;4950;46.042;14.472;2023-02-19T13:19:29;98323.41;;;10.89;70.97
9822;BME280;4950;46.042;14.472;2023-02-19T13:22:04;98319.03;;;10.89;70.57
9822;BME280;4950;46.042;14.472;2023-02-19T13:24:54;98319.50;;;10.93;70.59
9822;BME280;4950;46.042;14.472;2023-02-19T13:27:39;98316.91;;;10.93;70.63
9822;BME280;4950;46.042;14.472;2023-02-19T13:30:21;98311.84;;;10.99;70.38
9822;BME280;4950;46.042;14.472;2023-02-19T13:33:01;98306.03;;;11.05;70.14
9822;BME280;4950;46.042;14.472;2023-02-19T13:36:02;98313.19;;;11.03;70.32
9822;BME280;4950;46.042;14.472;2023-02-19T13:38:36;98313.19;;;11.03;70.29
9822;BME280;4950;46.042;14.472;2023-02-19T13:41:04;98307.97;;;11.03;70.12
9822;BME280;4950;46.042;14.472;2023-02-19T13:43:32;98307.63;;;11.06;69.57
9822;BME280;4950;46.042;14.472;2023-02-19T13:46:03;98309.22;;;11.16;69.52
9822;BME280;4950;46.042;14.472;2023-02-19T13:48:32;98302.41;;;11.23;69.33
9822;BME280;4950;46.042;14.472;2023-02-19T13:51:37;98301.72;;;11.29;69.06